createdAt,value
2018-10-18T15:23:18.962Z,1016.66
2018-10-18T15:24:20.605Z,1016.69
2018-10-18T15:25:18.907Z,1016.64
2018-10-18T15:26:18.950Z,1016.62
2018-10-18T15:27:18.751Z,1016.59
2018-10-18T15:28:18.566Z,1016.60
2018-10-18T15:29:18.595Z,1016.61
2018-10-18T15:30:18.374Z,1016.54
2018-10-18T15:31:18.269Z,1016.54
2018-10-18T15:32:18.234Z,1016.51
2018-10-18T15:33:18.664Z,1016.54
2018-10-18T15:34:17.966Z,1016.53
2018-10-18T15:35:18.001Z,1016.53
2018-10-18T15:36:17.754Z,1016.54
2018-10-18T15:37:17.653Z,1016.53
2018-10-18T15:38:17.826Z,1016.51
2018-10-18T15:39:17.645Z,1016.55
2018-10-18T15:40:17.358Z,1016.57
2018-10-18T15:41:17.363Z,1016.57
2018-10-18T15:42:17.129Z,1016.56
2018-10-18T15:43:17.608Z,1016.57
2018-10-18T15:44:17.024Z,1016.59
2018-10-18T15:45:16.888Z,1016.63
2018-10-18T15:46:16.719Z,1016.61
2018-10-18T15:47:16.728Z,1016.65
2018-10-18T15:48:16.509Z,1016.63
2018-10-18T15:49:16.410Z,1016.60
2018-10-18T15:50:16.392Z,1016.63
2018-10-18T15:51:16.299Z,1016.66
2018-10-18T15:52:16.197Z,1016.64
2018-10-18T15:53:16.340Z,1016.64
2018-10-18T15:54:16.029Z,1016.65
2018-10-18T15:55:15.768Z,1016.64
2018-10-18T15:56:15.666Z,1016.64
2018-10-18T15:57:15.584Z,1016.62
2018-10-18T15:58:15.453Z,1016.62
2018-10-18T15:59:15.541Z,1016.60
2018-10-18T16:00:15.420Z,1016.61
2018-10-18T16:01:15.141Z,1016.71
2018-10-18T16:02:15.038Z,1016.67
2018-10-18T16:03:14.946Z,1016.70
2018-10-18T16:04:14.850Z,1016.67
2018-10-18T16:05:15.043Z,1016.64
2018-10-18T16:06:14.696Z,1016.65
2018-10-18T16:07:14.520Z,1016.64
2018-10-18T16:08:14.420Z,1016.65
2018-10-18T16:09:14.317Z,1016.70
2018-10-18T16:10:14.224Z,1016.70
2018-10-18T16:11:15.140Z,1016.70
2018-10-18T16:12:14.010Z,1016.72
2018-10-18T16:13:13.912Z,1016.73
2018-10-18T16:14:13.938Z,1016.68
2018-10-18T16:15:13.713Z,1016.72
2018-10-18T16:16:13.622Z,1016.74
2018-10-18T16:17:13.615Z,1016.75
2018-10-18T16:18:13.410Z,1016.77
2018-10-18T16:19:13.317Z,1016.83
2018-10-18T16:20:13.315Z,1016.82
2018-10-18T16:21:13.118Z,1016.80
2018-10-18T16:22:13.098Z,1016.79
2018-10-18T16:23:12.949Z,1016.80
2018-10-18T16:24:12.895Z,1016.82
2018-10-18T16:25:12.733Z,1016.85
2018-10-18T16:26:13.804Z,1016.88
2018-10-18T16:27:13.095Z,1016.85
2018-10-18T16:28:12.419Z,1016.86
2018-10-18T16:29:12.432Z,1016.87
2018-10-18T16:30:12.232Z,1016.91
2018-10-18T16:31:12.106Z,1016.92
2018-10-18T16:32:12.771Z,1016.87
2018-10-18T16:33:11.884Z,1016.86
2018-10-18T16:34:11.789Z,1016.93
2018-10-18T16:35:11.716Z,1016.90
2018-10-18T16:36:12.106Z,1016.91
2018-10-18T16:37:11.441Z,1016.91
2018-10-18T16:38:11.379Z,1016.96
2018-10-18T16:39:11.213Z,1016.95
2018-10-18T16:40:11.106Z,1016.98
2018-10-18T16:41:11.174Z,1016.99
2018-10-18T16:42:10.870Z,1017.05
2018-10-18T16:43:10.763Z,1017.02
2018-10-18T16:44:10.725Z,1017.10
2018-10-18T16:45:10.520Z,1017.11
2018-10-18T16:46:10.537Z,1017.08
2018-10-18T16:47:10.286Z,1017.15
2018-10-18T16:48:10.236Z,1017.12
2018-10-18T16:49:10.050Z,1017.18
2018-10-18T16:50:11.381Z,1017.16
2018-10-18T16:51:11.852Z,1017.17
2018-10-18T16:52:09.892Z,1017.14
2018-10-18T16:53:09.605Z,1017.23
2018-10-18T16:54:09.731Z,1017.21
2018-10-18T16:55:09.317Z,1017.24
2018-10-18T16:56:09.223Z,1017.24
